createdAt,value
2023-02-11T00:01:53.193Z,7.05
2023-02-11T00:03:55.560Z,8.70
2023-02-11T00:05:58.674Z,9.82
2023-02-11T00:08:19.263Z,5.45
2023-02-11T00:10:20.829Z,5.90
2023-02-11T00:12:25.614Z,8.48
2023-02-11T00:14:30.346Z,9.48
2023-02-11T00:16:34.755Z,7.40
2023-02-11T00:18:37.686Z,7.00
2023-02-11T00:20:42.817Z,7.72
2023-02-11T00:23:05.132Z,6.93
2023-02-11T00:25:16.319Z,6.18
2023-02-11T00:27:27.774Z,6.10
2023-02-11T00:29:39.868Z,9.80
2023-02-11T00:31:46.089Z,7.38
2023-02-11T00:33:58.801Z,8.35
2023-02-11T00:36:14.878Z,4.75
2023-02-11T00:38:28.557Z,5.63
2023-02-11T00:40:39.586Z,8.50
2023-02-11T00:42:55.411Z,8.25
2023-02-11T00:45:08.363Z,11.18
2023-02-11T00:47:21.988Z,8.85
2023-02-11T00:49:53.880Z,5.70
2023-02-11T00:52:09.532Z,6.70
2023-02-11T00:54:16.232Z,8.45
2023-02-11T00:56:36.445Z,12.65
2023-02-11T00:58:38.171Z,6.40
2023-02-11T01:00:39.725Z,8.60
2023-02-11T01:02:41.832Z,8.68
2023-02-11T01:04:43.376Z,7.40
2023-02-11T01:07:03.775Z,5.70
2023-02-11T01:09:08.020Z,10.95
2023-02-11T01:11:15.285Z,6.35
2023-02-11T01:13:16.817Z,5.47
2023-02-11T01:15:19.528Z,8.65
2023-02-11T01:17:21.016Z,5.32
2023-02-11T01:19:25.531Z,7.50
2023-02-11T01:21:27.182Z,5.80
2023-02-11T01:23:28.712Z,8.18
2023-02-11T01:27:34.502Z,5.78
2023-02-11T01:29:35.991Z,6.15
2023-02-11T01:31:37.637Z,6.15
2023-02-11T01:33:39.162Z,5.30
2023-02-11T01:35:40.864Z,6.20
2023-02-11T01:37:45.530Z,8.35
2023-02-11T01:39:47.050Z,6.88
2023-02-11T01:41:48.621Z,6.90
2023-02-11T01:44:22.591Z,11.35
2023-02-11T01:46:30.192Z,9.32
2023-02-11T01:48:37.370Z,10.38
2023-02-11T01:50:40.638Z,7.13
2023-02-11T01:52:47.285Z,11.52
2023-02-11T01:55:18.828Z,9.13
2023-02-11T01:57:22.740Z,6.55
2023-02-11T01:59:26.780Z,5.82
2023-02-11T02:01:29.069Z,6.32
2023-02-11T02:03:34.421Z,5.90
2023-02-11T02:05:41.815Z,8.88
2023-02-11T02:07:55.810Z,5.18
2023-02-11T02:10:04.624Z,7.53
2023-02-11T02:12:06.238Z,10.98
2023-02-11T02:14:10.743Z,7.00
2023-02-11T02:18:35.256Z,5.85
2023-02-11T02:20:46.057Z,10.02
2023-02-11T02:22:57.245Z,3.45
2023-02-11T02:25:01.029Z,5.10
2023-02-11T02:27:19.447Z,7.40
2023-02-11T02:29:45.715Z,6.15
2023-02-11T02:31:50.198Z,3.75
2023-02-11T02:34:07.063Z,6.57
2023-02-11T02:36:37.485Z,7.32
2023-02-11T02:38:44.700Z,6.78
2023-02-11T02:40:58.945Z,2.95
2023-02-11T02:43:04.055Z,6.78
2023-02-11T02:45:07.128Z,4.18
2023-02-11T02:47:08.725Z,2.70
2023-02-11T02:49:14.051Z,2.47
2023-02-11T02:51:23.345Z,7.45
2023-02-11T02:53:45.709Z,3.63
2023-02-11T02:55:53.343Z,4.35
2023-02-11T02:58:09.968Z,3.90
2023-02-11T03:00:14.516Z,6.35
2023-02-11T03:02:19.269Z,2.70
2023-02-11T03:04:29.583Z,5.63
2023-02-11T03:06:37.115Z,4.80
2023-02-11T03:08:41.144Z,4.60
2023-02-11T03:10:47.355Z,2.60
2023-02-11T03:12:50.442Z,6.10
2023-02-11T03:14:55.168Z,5.18
2023-02-11T03:17:04.459Z,6.60
2023-02-11T03:19:29.279Z,4.40
2023-02-11T03:21:31.969Z,6.95
2023-02-11T03:23:44.563Z,5.03
2023-02-11T03:25:51.067Z,4.82
2023-02-11T03:27:57.946Z,3.45
2023-02-11T03:30:20.040Z,9.00
2023-02-11T03:32:37.189Z,7.47
2023-02-11T03:35:00.215Z,4.55
2023-02-11T03:39:25.706Z,7.88
2023-02-11T03:41:39.616Z,4.38
2023-02-11T03:43:52.734Z,6.53
2023-02-11T03:46:06.341Z,5.40
2023-02-11T03:48:35.372Z,5.95
2023-02-11T03:50:48.057Z,1.67
2023-02-11T03:53:02.666Z,5.70
2023-02-11T03:55:19.364Z,1.92
2023-02-11T03:57:35.167Z,6.88
2023-02-11T03:59:59.750Z,5.03
2023-02-11T04:02:06.372Z,1.75
2023-02-11T04:04:07.802Z,3.00
2023-02-11T04:06:09.435Z,10.35
2023-02-11T04:08:10.958Z,5.07
2023-02-11T04:10:12.718Z,7.10
2023-02-11T04:12:17.397Z,8.48
2023-02-11T04:14:22.225Z,3.97
2023-02-11T04:16:27.184Z,2.17
2023-02-11T04:18:28.750Z,4.03
2023-02-11T04:22:34.606Z,8.15
2023-02-11T04:24:36.299Z,2.88
2023-02-11T04:26:37.824Z,4.88
2023-02-11T04:31:02.231Z,6.20
2023-02-11T04:33:03.874Z,2.67
2023-02-11T04:37:12.500Z,3.03
2023-02-11T04:39:14.117Z,5.07
2023-02-11T04:41:34.471Z,5.93
2023-02-11T04:43:39.157Z,5.15
2023-02-11T04:45:59.385Z,9.25
2023-02-11T04:48:04.019Z,2.45
2023-02-11T04:50:11.506Z,4.15
2023-02-11T04:52:16.019Z,6.53
2023-02-11T04:56:40.152Z,3.75
2023-02-11T04:58:41.810Z,2.15
2023-02-11T05:00:46.602Z,5.95
2023-02-11T05:02:50.949Z,4.55
2023-02-11T05:04:52.524Z,5.63
2023-02-11T05:06:58.654Z,3.55
2023-02-11T05:09:00.897Z,4.70
2023-02-11T05:11:08.321Z,1.75
2023-02-11T05:13:12.733Z,4.97
2023-02-11T05:15:33.382Z,2.67
2023-02-11T05:17:37.614Z,1.05
2023-02-11T05:19:42.451Z,4.38
2023-02-11T05:22:01.431Z,4.75
2023-02-11T05:24:09.470Z,1.05
2023-02-11T05:26:14.445Z,7.72
2023-02-11T05:28:22.335Z,6.63
2023-02-11T05:30:23.909Z,2.97
2023-02-11T05:32:25.425Z,4.78
2023-02-11T05:34:33.046Z,2.38
2023-02-11T05:36:34.629Z,2.72
2023-02-11T05:38:36.482Z,5.80
2023-02-11T05:40:37.999Z,3.92
2023-02-11T05:42:42.470Z,10.15
2023-02-11T05:44:43.935Z,3.50
2023-02-11T05:48:50.685Z,4.00
2023-02-11T05:51:10.691Z,1.17
2023-02-11T05:53:18.005Z,0.50
2023-02-11T05:55:19.864Z,1.85
2023-02-11T05:57:21.484Z,2.63
2023-02-11T05:59:23.220Z,5.85
2023-02-11T06:01:24.691Z,5.60
2023-02-11T06:03:26.231Z,1.35
2023-02-11T06:05:27.677Z,4.97
2023-02-11T06:07:47.689Z,8.20
2023-02-11T06:09:49.250Z,3.60
2023-02-11T06:11:59.483Z,2.75
2023-02-11T06:14:01.610Z,6.72
2023-02-11T06:16:03.334Z,4.30
2023-02-11T06:18:07.790Z,3.25
2023-02-11T06:20:10.632Z,2.63
2023-02-11T06:22:12.200Z,2.88
2023-02-11T06:24:13.772Z,3.35
2023-02-11T06:26:17.834Z,8.80
2023-02-11T06:28:22.496Z,3.40
2023-02-11T06:30:33.853Z,2.78
2023-02-11T06:32:44.489Z,2.25
2023-02-11T06:34:49.606Z,5.18
2023-02-11T06:36:54.422Z,3.92
2023-02-11T06:38:59.012Z,7.00
2023-02-11T06:41:00.580Z,5.95
2023-02-11T06:43:02.423Z,17.38
2023-02-11T06:45:06.100Z,2.97
2023-02-11T06:47:07.737Z,4.43
2023-02-11T06:49:09.339Z,2.95
2023-02-11T06:51:13.258Z,4.30
2023-02-11T06:53:20.762Z,2.50
2023-02-11T06:55:22.363Z,5.65
2023-02-11T06:57:23.882Z,1.90
2023-02-11T06:59:44.308Z,4.53
2023-02-11T07:01:49.145Z,4.53
2023-02-11T07:03:57.058Z,4.57
2023-02-11T07:05:58.678Z,7.38
2023-02-11T07:08:00.244Z,5.05
2023-02-11T07:10:08.631Z,2.00
2023-02-11T07:12:10.675Z,2.97
2023-02-11T07:14:13.554Z,3.10
2023-02-11T07:16:16.041Z,3.17
2023-02-11T07:18:36.073Z,4.80
2023-02-11T07:20:38.829Z,2.42
2023-02-11T07:22:40.323Z,5.70
2023-02-11T07:24:41.846Z,3.17
2023-02-11T07:26:46.201Z,4.18
2023-02-11T07:28:47.666Z,2.75
2023-02-11T07:30:49.363Z,2.53
2023-02-11T07:32:53.847Z,2.88
2023-02-11T07:34:58.210Z,10.35
2023-02-11T07:37:03.265Z,5.70
2023-02-11T07:39:07.488Z,6.57
2023-02-11T07:41:15.198Z,9.07
2023-02-11T07:43:22.858Z,4.78
2023-02-11T07:45:27.521Z,1.10
2023-02-11T07:47:29.204Z,7.10
2023-02-11T07:49:30.891Z,3.78
2023-02-11T07:51:32.423Z,2.55
2023-02-11T07:53:34.234Z,6.47
2023-02-11T07:55:38.634Z,6.93
2023-02-11T07:59:44.423Z,3.95
2023-02-11T08:01:46.118Z,6.20
2023-02-11T08:03:48.093Z,8.00
2023-02-11T08:05:55.514Z,4.57
2023-02-11T08:07:57.049Z,9.75
2023-02-11T08:09:58.616Z,10.02
2023-02-11T08:12:03.422Z,3.53
2023-02-11T08:14:25.337Z,7.60
2023-02-11T08:16:45.801Z,7.50
2023-02-11T08:18:50.712Z,4.28
2023-02-11T08:20:52.625Z,3.42
2023-02-11T08:22:54.651Z,4.80
2023-02-11T08:24:58.621Z,5.25
2023-02-11T08:27:00.239Z,4.07
2023-02-11T08:29:09.232Z,5.43
2023-02-11T08:31:20.705Z,9.95
2023-02-11T08:33:28.479Z,1.27
2023-02-11T08:35:29.994Z,3.85
2023-02-11T08:37:50.604Z,5.70
2023-02-11T08:39:55.068Z,6.75
2023-02-11T08:42:02.383Z,4.80
2023-02-11T08:44:03.982Z,3.83
2023-02-11T08:48:09.580Z,5.05
2023-02-11T08:52:18.219Z,5.18
2023-02-11T08:54:38.305Z,7.03
2023-02-11T08:56:43.523Z,5.25
2023-02-11T08:59:03.867Z,6.63
2023-02-11T09:01:15.702Z,4.45
2023-02-11T09:03:17.366Z,4.38
2023-02-11T09:05:22.718Z,6.35
2023-02-11T09:07:28.160Z,4.55
2023-02-11T09:09:32.277Z,4.07
2023-02-11T09:11:36.537Z,4.65
2023-02-11T09:13:56.858Z,5.25
2023-02-11T09:15:59.416Z,5.57
2023-02-11T09:18:01.720Z,9.55
2023-02-11T09:20:22.158Z,4.07
2023-02-11T09:22:26.736Z,7.93
2023-02-11T09:24:30.608Z,6.70
2023-02-11T09:26:35.903Z,5.32
2023-02-11T09:28:40.444Z,5.25
2023-02-11T09:30:42.290Z,5.57
2023-02-11T09:32:46.899Z,3.67
2023-02-11T09:34:48.476Z,4.63
2023-02-11T09:36:53.303Z,6.00
2023-02-11T09:38:57.751Z,4.20
2023-02-11T09:41:14.650Z,6.88
2023-02-11T09:43:29.710Z,4.13
2023-02-11T09:45:44.931Z,5.35
2023-02-11T09:50:44.242Z,6.32
2023-02-11T09:53:16.732Z,4.78
2023-02-11T09:55:41.968Z,6.10
2023-02-11T09:57:53.197Z,4.38
2023-02-11T10:00:09.675Z,5.43
2023-02-11T10:02:27.414Z,4.35
2023-02-11T10:04:50.964Z,4.53
2023-02-11T10:07:21.274Z,2.78
2023-02-11T10:11:54.639Z,3.67
2023-02-11T10:14:00.612Z,4.18
2023-02-11T10:16:31.432Z,2.30
2023-02-11T10:18:41.725Z,9.10
2023-02-11T10:20:50.160Z,7.70
2023-02-11T10:22:57.764Z,2.67
2023-02-11T10:25:23.866Z,3.30
2023-02-11T10:27:34.904Z,9.55
2023-02-11T10:29:42.560Z,3.92
2023-02-11T10:31:45.297Z,9.63
2023-02-11T10:33:57.642Z,3.03
2023-02-11T10:36:02.464Z,4.00
2023-02-11T10:38:04.243Z,4.78
2023-02-11T10:40:07.123Z,5.15
2023-02-11T10:42:12.497Z,2.45
2023-02-11T10:44:22.081Z,7.00
2023-02-11T10:46:27.214Z,4.63
2023-02-11T10:48:43.406Z,8.52
2023-02-11T10:50:44.997Z,3.75
2023-02-11T10:52:49.681Z,5.90
2023-02-11T10:54:58.775Z,2.28
2023-02-11T10:57:03.427Z,5.95
2023-02-11T10:59:07.194Z,4.35
2023-02-11T11:01:23.476Z,3.75
2023-02-11T11:03:39.423Z,4.35
2023-02-11T11:05:58.159Z,2.20
2023-02-11T11:08:02.054Z,6.43
2023-02-11T11:10:08.540Z,3.83
2023-02-11T11:12:28.814Z,6.50
2023-02-11T11:14:33.284Z,3.80
2023-02-11T11:16:37.608Z,8.73
2023-02-11T11:18:40.069Z,5.38
2023-02-11T11:20:55.038Z,4.03
2023-02-11T11:23:17.308Z,4.53
2023-02-11T11:27:26.037Z,4.72
2023-02-11T11:29:29.033Z,4.82
2023-02-11T11:31:34.873Z,3.22
2023-02-11T11:33:56.824Z,6.85
2023-02-11T11:36:04.465Z,4.03
2023-02-11T11:38:14.200Z,7.07
2023-02-11T11:40:35.119Z,4.82
2023-02-11T11:42:40.055Z,6.80
2023-02-11T11:44:56.053Z,4.10
2023-02-11T11:47:14.731Z,7.50
2023-02-11T11:49:36.500Z,1.75
2023-02-11T11:51:40.216Z,10.52
2023-02-11T11:53:45.584Z,3.13
2023-02-11T11:56:00.565Z,4.50
2023-02-11T11:58:21.565Z,5.10
2023-02-11T12:00:26.540Z,4.55
2023-02-11T12:02:33.668Z,2.47
2023-02-11T12:04:41.314Z,2.85
2023-02-11T12:06:45.695Z,1.95
2023-02-11T12:09:05.534Z,5.45
2023-02-11T12:11:18.924Z,2.28
2023-02-11T12:13:23.464Z,4.97
2023-02-11T12:15:34.003Z,3.58
2023-02-11T12:17:54.425Z,2.08
2023-02-11T12:20:14.218Z,5.00
2023-02-11T12:22:26.451Z,3.42
2023-02-11T12:24:37.348Z,5.00
2023-02-11T12:26:47.769Z,6.78
2023-02-11T12:29:04.556Z,4.50
2023-02-11T12:31:08.988Z,4.22
2023-02-11T12:33:20.345Z,1.50
2023-02-11T12:35:28.074Z,4.18
2023-02-11T12:37:32.507Z,3.97
2023-02-11T12:39:42.935Z,5.18
2023-02-11T12:42:12.363Z,5.22
2023-02-11T12:44:35.419Z,2.33
2023-02-11T12:46:56.668Z,3.22
2023-02-11T12:49:16.747Z,5.60
2023-02-11T12:51:39.230Z,5.75
2023-02-11T12:53:58.155Z,2.75
2023-02-11T12:56:12.878Z,1.65
2023-02-11T12:58:44.120Z,3.17
2023-02-11T13:01:01.540Z,4.15
2023-02-11T13:03:26.078Z,3.58
2023-02-11T13:05:40.994Z,2.28
2023-02-11T13:07:55.071Z,3.28
2023-02-11T13:12:39.051Z,5.75
2023-02-11T13:14:44.285Z,7.13
2023-02-11T13:16:55.333Z,2.92
2023-02-11T13:19:11.746Z,4.13
2023-02-11T13:21:14.788Z,5.70
2023-02-11T13:23:25.954Z,3.45
2023-02-11T13:25:40.936Z,4.38
2023-02-11T13:28:20.557Z,2.92
2023-02-11T13:30:32.680Z,2.92
2023-02-11T13:33:03.516Z,3.83
2023-02-11T13:35:26.777Z,4.60
2023-02-11T13:37:31.010Z,3.92
2023-02-11T13:39:32.588Z,2.47
2023-02-11T13:41:35.555Z,5.80
2023-02-11T13:43:40.370Z,3.40
2023-02-11T13:45:48.875Z,4.82
2023-02-11T13:48:04.596Z,2.53
2023-02-11T13:50:21.849Z,4.03
2023-02-11T13:52:29.442Z,2.33
2023-02-11T13:54:33.425Z,2.30
2023-02-11T13:56:37.073Z,2.72
2023-02-11T13:58:48.668Z,2.45
2023-02-11T14:00:51.379Z,4.45
2023-02-11T14:03:30.046Z,2.53
2023-02-11T14:05:50.410Z,3.90
2023-02-11T14:08:28.888Z,8.27
2023-02-11T14:10:49.208Z,5.13
2023-02-11T14:13:12.181Z,6.18
2023-02-11T14:15:20.192Z,3.15
2023-02-11T14:17:28.284Z,5.15
2023-02-11T14:19:35.746Z,3.22
2023-02-11T14:21:39.724Z,4.72
2023-02-11T14:23:41.333Z,1.67
2023-02-11T14:25:43.699Z,4.03
2023-02-11T14:27:57.588Z,7.60
2023-02-11T14:30:21.120Z,7.68
2023-02-11T14:32:47.809Z,7.85
2023-02-11T14:35:03.531Z,3.78
2023-02-11T14:37:27.218Z,7.20
2023-02-11T14:39:37.945Z,2.30
2023-02-11T14:41:41.427Z,4.93
2023-02-11T14:43:51.533Z,5.82
2023-02-11T14:45:57.795Z,2.28
2023-02-11T14:48:15.258Z,6.03
2023-02-11T14:50:24.019Z,3.22
2023-02-11T14:52:35.309Z,5.20
2023-02-11T14:54:36.965Z,2.78
2023-02-11T14:58:48.518Z,6.13
2023-02-11T15:00:51.477Z,8.82
2023-02-11T15:02:56.335Z,7.40
2023-02-11T15:05:19.211Z,6.15
2023-02-11T15:07:43.038Z,5.25
2023-02-11T15:09:46.188Z,4.47
2023-02-11T15:11:51.689Z,6.00
2023-02-11T15:13:56.640Z,3.88
2023-02-11T15:16:05.155Z,7.47
2023-02-11T15:18:17.438Z,5.57
2023-02-11T15:20:20.928Z,5.35
2023-02-11T15:22:27.091Z,3.50
2023-02-11T15:24:32.806Z,5.53
2023-02-11T15:26:34.402Z,3.10
2023-02-11T15:28:36.230Z,3.60
2023-02-11T15:30:37.696Z,6.90
2023-02-11T15:32:43.796Z,4.93
2023-02-11T15:34:48.957Z,5.75
2023-02-11T15:36:53.678Z,6.22
2023-02-11T15:39:13.635Z,3.10
2023-02-11T15:41:33.587Z,1.55
2023-02-11T15:43:41.361Z,4.70
2023-02-11T15:46:03.448Z,4.18
2023-02-11T15:48:16.814Z,4.20
2023-02-11T15:50:24.420Z,5.00
2023-02-11T15:52:45.490Z,3.72
2023-02-11T15:55:04.402Z,3.40
2023-02-11T15:57:23.009Z,2.67
2023-02-11T15:59:39.971Z,5.03
2023-02-11T16:01:57.584Z,7.38
2023-02-11T16:06:31.784Z,4.55
2023-02-11T16:08:50.784Z,4.70
2023-02-11T16:11:11.806Z,1.70
2023-02-11T16:13:27.031Z,3.40
2023-02-11T16:15:43.978Z,4.57
2023-02-11T16:17:56.914Z,2.65
2023-02-11T16:20:28.776Z,6.60
2023-02-11T16:22:40.077Z,11.20
2023-02-11T16:24:46.537Z,3.22
2023-02-11T16:26:52.891Z,9.55
2023-02-11T16:29:02.327Z,81.30
2023-02-11T16:31:07.095Z,128.65
2023-02-11T16:33:09.774Z,184.88
2023-02-11T16:35:12.048Z,256.08
2023-02-11T16:37:16.645Z,195.57
2023-02-11T16:39:21.512Z,154.68
2023-02-11T16:41:23.084Z,70.68
2023-02-11T16:43:24.755Z,86.88
2023-02-11T16:45:26.776Z,116.13
2023-02-11T16:47:34.486Z,108.00
2023-02-11T16:49:55.537Z,61.95
2023-02-11T16:52:16.312Z,39.60
2023-02-11T16:54:18.664Z,20.00
2023-02-11T16:56:22.889Z,10.35
2023-02-11T16:58:24.430Z,12.32
2023-02-11T17:00:26.146Z,11.05
2023-02-11T17:02:33.191Z,21.13
2023-02-11T17:04:41.370Z,18.13
2023-02-11T17:06:46.089Z,15.98
2023-02-11T17:08:50.460Z,16.70
2023-02-11T17:10:52.350Z,12.00
2023-02-11T17:12:56.670Z,10.98
2023-02-11T17:14:58.333Z,23.63
2023-02-11T17:16:59.794Z,12.00
2023-02-11T17:19:03.960Z,9.00
2023-02-11T17:23:09.510Z,8.05
2023-02-11T17:25:11.386Z,9.20
2023-02-11T17:27:31.461Z,7.22
2023-02-11T17:29:35.574Z,10.60
2023-02-11T17:31:40.969Z,4.43
2023-02-11T17:33:45.621Z,6.97
2023-02-11T17:35:50.483Z,10.98
2023-02-11T17:37:55.280Z,5.78
2023-02-11T17:39:56.717Z,12.50
2023-02-11T17:41:58.170Z,13.27
2023-02-11T17:43:59.990Z,18.45
2023-02-11T17:46:08.353Z,12.23
2023-02-11T17:48:12.526Z,20.58
2023-02-11T17:50:13.931Z,20.42
2023-02-11T17:52:19.451Z,24.38
2023-02-11T17:54:21.061Z,19.58
2023-02-11T17:56:25.631Z,15.38
2023-02-11T17:58:30.098Z,33.70
2023-02-11T18:00:31.613Z,29.98
2023-02-11T18:02:33.192Z,26.00
2023-02-11T18:04:35.062Z,29.73
2023-02-11T18:06:39.252Z,28.75
2023-02-11T18:08:43.876Z,23.17
2023-02-11T18:10:45.709Z,30.45
2023-02-11T18:12:48.923Z,18.53
2023-02-11T18:14:51.504Z,15.93
2023-02-11T18:16:55.749Z,23.25
2023-02-11T18:18:59.013Z,20.35
2023-02-11T18:21:01.609Z,20.20
2023-02-11T18:23:03.288Z,29.15
2023-02-11T18:25:23.229Z,25.60
2023-02-11T18:27:24.925Z,31.00
2023-02-11T18:29:29.708Z,28.40
2023-02-11T18:31:50.176Z,27.40
2023-02-11T18:33:54.883Z,25.10
2023-02-11T18:38:03.264Z,21.48
2023-02-11T18:40:07.821Z,24.17
2023-02-11T18:42:12.207Z,25.10
2023-02-11T18:44:14.293Z,25.52
2023-02-11T18:46:19.072Z,27.10
2023-02-11T18:48:20.641Z,25.08
2023-02-11T18:50:27.894Z,26.95
2023-02-11T18:54:33.258Z,29.55
2023-02-11T18:56:43.237Z,23.02
2023-02-11T18:58:56.192Z,21.35
2023-02-11T19:01:07.431Z,22.70
2023-02-11T19:03:17.392Z,21.30
2023-02-11T19:05:30.404Z,24.42
2023-02-11T19:07:39.510Z,18.92
2023-02-11T19:09:49.311Z,24.30
2023-02-11T19:12:02.310Z,20.38
2023-02-11T19:14:15.723Z,20.35
2023-02-11T19:16:20.195Z,24.70
2023-02-11T19:18:28.708Z,29.63
2023-02-11T19:20:53.854Z,22.75
2023-02-11T19:23:04.937Z,34.40
2023-02-11T19:25:21.069Z,25.67
2023-02-11T19:27:29.229Z,21.73
2023-02-11T19:29:34.971Z,25.35
2023-02-11T19:31:40.067Z,24.15
2023-02-11T19:33:44.400Z,29.00
2023-02-11T19:35:46.075Z,20.67
2023-02-11T19:37:50.197Z,24.42
2023-02-11T19:40:11.259Z,20.33
2023-02-11T19:42:13.133Z,23.48
2023-02-11T19:44:17.318Z,16.23
2023-02-11T19:46:22.230Z,20.27
2023-02-11T19:48:26.632Z,19.05
2023-02-11T19:50:28.802Z,14.85
2023-02-11T19:52:32.967Z,17.15
2023-02-11T19:54:53.136Z,15.43
2023-02-11T19:56:55.010Z,12.98
2023-02-11T19:58:59.156Z,19.52
2023-02-11T20:01:10.778Z,22.02
2023-02-11T20:03:12.274Z,15.32
2023-02-11T20:05:16.521Z,19.38
2023-02-11T20:07:17.989Z,18.08
2023-02-11T20:09:22.794Z,15.05
2023-02-11T20:11:31.729Z,16.85
2023-02-11T20:13:51.750Z,19.48
2023-02-11T20:15:55.276Z,18.00
2023-02-11T20:18:16.117Z,20.38
2023-02-11T20:20:18.612Z,18.83
2023-02-11T20:22:22.993Z,15.02
2023-02-11T20:24:25.220Z,21.17
2023-02-11T20:26:48.205Z,17.40
2023-02-11T20:28:53.514Z,16.52
2023-02-11T20:30:58.782Z,18.55
2023-02-11T20:33:03.804Z,26.35
2023-02-11T20:35:08.774Z,19.88
2023-02-11T20:37:10.476Z,16.83
2023-02-11T20:39:18.567Z,16.60
2023-02-11T20:41:28.031Z,16.23
2023-02-11T20:43:32.573Z,18.33
2023-02-11T20:45:35.181Z,20.77
2023-02-11T20:47:37.518Z,16.23
2023-02-11T20:49:39.264Z,16.77
2023-02-11T20:51:43.912Z,17.75
2023-02-11T20:53:49.897Z,19.40
2023-02-11T20:55:51.829Z,14.63
2023-02-11T20:57:53.428Z,20.65
2023-02-11T20:59:54.944Z,18.27
2023-02-11T21:01:56.593Z,19.58
2023-02-11T21:04:06.120Z,19.48
2023-02-11T21:06:10.787Z,17.95
2023-02-11T21:08:14.927Z,18.45
2023-02-11T21:10:19.348Z,16.15
2023-02-11T21:12:24.069Z,17.00
2023-02-11T21:14:28.538Z,21.13
2023-02-11T21:16:33.128Z,25.70
2023-02-11T21:18:35.015Z,20.70
2023-02-11T21:20:36.738Z,16.13
2023-02-11T21:22:41.019Z,19.92
2023-02-11T21:24:45.289Z,20.85
2023-02-11T21:27:05.619Z,18.73
2023-02-11T21:31:24.423Z,18.90
2023-02-11T21:33:29.184Z,21.23
2023-02-11T21:35:34.116Z,22.63
2023-02-11T21:37:35.673Z,21.15
2023-02-11T21:39:40.100Z,22.67
2023-02-11T21:42:00.232Z,18.00
2023-02-11T21:44:01.765Z,25.17
2023-02-11T21:46:07.472Z,24.73
2023-02-11T21:48:08.927Z,16.70
2023-02-11T21:50:13.009Z,18.30
2023-02-11T21:52:16.985Z,16.50
2023-02-11T21:56:23.262Z,19.98
2023-02-11T21:58:24.681Z,21.02
2023-02-11T22:00:29.010Z,20.95
2023-02-11T22:02:32.148Z,20.27
2023-02-11T22:05:00.807Z,18.63
2023-02-11T22:07:05.051Z,23.83
2023-02-11T22:09:15.525Z,19.13
2023-02-11T22:11:29.911Z,17.67
2023-02-11T22:13:41.173Z,15.15
2023-02-11T22:15:59.831Z,17.88
2023-02-11T22:18:12.428Z,18.48
2023-02-11T22:20:18.433Z,15.75
2023-02-11T22:22:30.380Z,18.92
2023-02-11T22:24:58.488Z,18.88
2023-02-11T22:27:10.644Z,17.55
2023-02-11T22:29:23.950Z,22.08
2023-02-11T22:31:33.787Z,16.77
2023-02-11T22:33:44.077Z,18.92
2023-02-11T22:35:57.543Z,16.23
2023-02-11T22:37:58.998Z,17.52
2023-02-11T22:40:03.448Z,18.35
2023-02-11T22:42:23.484Z,22.40
2023-02-11T22:44:25.526Z,17.58
2023-02-11T22:46:27.001Z,16.77
2023-02-11T22:48:28.433Z,18.40
2023-02-11T22:50:30.012Z,21.63
2023-02-11T22:52:50.163Z,27.23
2023-02-11T22:54:55.221Z,28.90
2023-02-11T22:56:56.686Z,23.83
2023-02-11T22:59:17.367Z,22.33
2023-02-11T23:01:37.675Z,21.92
2023-02-11T23:03:59.435Z,17.27
2023-02-11T23:06:01.373Z,15.90
2023-02-11T23:08:02.873Z,20.38
2023-02-11T23:10:23.112Z,18.98
2023-02-11T23:12:27.590Z,26.38
2023-02-11T23:14:31.872Z,23.98
2023-02-11T23:16:36.058Z,23.95
2023-02-11T23:18:41.542Z,21.05
2023-02-11T23:20:43.738Z,19.48
2023-02-11T23:22:47.937Z,22.67
2023-02-11T23:24:55.220Z,26.10
2023-02-11T23:26:59.658Z,19.92
2023-02-11T23:29:01.113Z,20.10
2023-02-11T23:31:29.263Z,22.58
2023-02-11T23:33:31.040Z,24.55
2023-02-11T23:35:32.530Z,18.55
2023-02-11T23:37:36.832Z,21.50
2023-02-11T23:39:41.280Z,25.58
2023-02-11T23:41:46.050Z,20.15
2023-02-11T23:43:54.456Z,22.25
2023-02-11T23:46:02.179Z,21.08
2023-02-11T23:48:22.643Z,23.65
2023-02-11T23:50:27.034Z,23.25
2023-02-11T23:52:46.862Z,19.48
2023-02-11T23:54:49.401Z,20.02
2023-02-11T23:56:50.994Z,23.05
2023-02-11T23:58:53.726Z,19.92
